Time;durP1;ratioP1;P1;durP2;ratioP2;P2;SDS_P1;SDS_P2;PMS_P1;PMS_P2;Temp;Humidity;BMP_temperature;BMP_pressure;BME280_temperature;BME280_humidity;BME280_pressure;Samples;Min_cycle;Max_cycle;Signal;HPM_P1;HPM_P2
2022/03/25 00:00:30;;;;;;;60.88;36.08;;;4.80;99.90;;;;;;2088843;28;20033;-75
2022/03/25 00:01:31;;;;;;;58.30;35.13;;;4.80;99.90;;;;;;2097636;28;20049;-74
2022/03/25 00:02:31;;;;;;;55.13;33.90;;;4.70;99.90;;;;;;2097476;28;20392;-74
2022/03/25 00:03:32;;;;;;;59.20;36.25;;;4.70;99.90;;;;;;2097587;28;20025;-74
2022/03/25 00:04:33;;;;;;;58.95;35.92;;;4.70;99.90;;;;;;2098241;28;20044;-74
2022/03/25 00:05:33;;;;;;;58.65;34.88;;;4.70;99.90;;;;;;2088920;28;20107;-72
2022/03/25 00:06:35;;;;;;;58.70;35.63;;;4.70;99.90;;;;;;2089201;28;20071;-73
2022/03/25 00:07:36;;;;;;;59.28;35.80;;;4.70;99.90;;;;;;2097399;28;20062;-75
2022/03/25 00:08:37;;;;;;;56.90;34.53;;;4.70;99.90;;;;;;2097539;28;20047;-72
2022/03/25 00:09:37;;;;;;;56.13;34.78;;;4.70;99.90;;;;;;2098111;28;20044;-74
2022/03/25 00:10:38;;;;;;;56.25;34.55;;;4.60;99.90;;;;;;2098098;28;20028;-74
2022/03/25 00:11:38;;;;;;;58.20;35.33;;;4.60;99.90;;;;;;2098256;28;20365;-71
2022/03/25 00:12:39;;;;;;;55.83;34.00;;;4.60;99.90;;;;;;2098605;28;20029;-72
2022/03/25 00:13:40;;;;;;;60.25;35.88;;;4.60;99.90;;;;;;2089341;28;20067;-72
2022/03/25 00:14:41;;;;;;;61.58;35.85;;;4.60;99.90;;;;;;2088991;28;20024;-75
2022/03/25 00:15:41;;;;;;;59.53;34.90;;;4.60;99.90;;;;;;2097930;28;20060;-73
2022/03/25 00:16:43;;;;;;;61.75;36.40;;;4.60;99.90;;;;;;2098760;28;20054;-75
2022/03/25 00:17:43;;;;;;;60.70;35.13;;;4.60;99.90;;;;;;2098950;28;20672;-75
2022/03/25 00:18:44;;;;;;;56.05;34.78;;;4.60;99.90;;;;;;2097579;28;20111;-73
2022/03/25 00:19:44;;;;;;;61.30;36.13;;;4.60;99.90;;;;;;2097704;28;20025;-72
2022/03/25 00:20:45;;;;;;;62.53;36.00;;;4.50;99.90;;;;;;2097338;28;20039;-72
2022/03/25 00:21:46;;;;;;;56.80;34.58;;;4.50;99.90;;;;;;2106142;28;20043;-74
2022/03/25 00:22:46;;;;;;;57.13;35.08;;;4.50;99.90;;;;;;2097443;28;20032;-73
2022/03/25 00:23:47;;;;;;;60.03;35.22;;;4.50;99.90;;;;;;2089402;28;20666;-72
2022/03/25 00:24:48;;;;;;;55.92;34.78;;;4.50;99.90;;;;;;2089474;28;20060;-72
2022/03/25 00:25:48;;;;;;;57.67;34.88;;;4.50;99.90;;;;;;2098373;28;20533;-74
2022/03/25 00:26:49;;;;;;;59.80;35.28;;;4.50;99.90;;;;;;2098515;28;20084;-73
2022/03/25 00:27:50;;;;;;;55.88;34.50;;;4.40;99.90;;;;;;2097572;28;20087;-73
2022/03/25 00:28:51;;;;;;;60.33;34.60;;;4.40;99.90;;;;;;2089592;28;20533;-71
2022/03/25 00:29:51;;;;;;;57.70;34.88;;;4.40;99.90;;;;;;2089364;28;20032;-72
2022/03/25 00:30:53;;;;;;;57.47;35.25;;;4.40;99.90;;;;;;2081102;28;20400;-74
2022/03/25 00:31:53;;;;;;;57.75;34.60;;;4.40;99.90;;;;;;2089308;28;20036;-75
2022/03/25 00:32:54;;;;;;;57.30;34.10;;;4.40;99.90;;;;;;2097427;28;20048;-74
2022/03/25 00:33:54;;;;;;;56.97;34.47;;;4.30;99.90;;;;;;2105841;28;20028;-75
2022/03/25 00:34:55;;;;;;;60.95;35.72;;;4.40;99.90;;;;;;2105641;28;20031;-76
2022/03/25 00:35:55;;;;;;;57.65;34.30;;;4.40;99.90;;;;;;2097817;28;20480;-73
2022/03/25 00:36:56;;;;;;;59.47;35.95;;;4.40;99.90;;;;;;2097771;28;20472;-72
2022/03/25 00:37:58;;;;;;;62.65;35.70;;;4.40;99.90;;;;;;2097842;28;20442;-73
2022/03/25 00:38:59;;;;;;;59.88;35.75;;;4.40;99.90;;;;;;2097596;28;20369;-72
2022/03/25 00:40:00;;;;;;;61.83;36.13;;;4.30;99.90;;;;;;2088907;28;20075;-74
2022/03/25 00:41:00;;;;;;;60.13;36.20;;;4.30;99.90;;;;;;2089001;28;20033;-74
2022/03/25 00:42:03;;;;;;;64.57;36.72;;;4.30;99.90;;;;;;2089529;28;20055;-75
2022/03/25 00:43:06;;;;;;;62.25;36.28;;;4.30;99.90;;;;;;2089606;28;20021;-75
2022/03/25 00:44:07;;;;;;;63.85;36.08;;;4.30;99.90;;;;;;2097649;28;20029;-74
2022/03/25 00:45:11;;;;;;;63.00;37.28;;;4.30;99.90;;;;;;2089133;28;20021;-74
2022/03/25 00:46:12;;;;;;;55.83;33.97;;;4.30;99.90;;;;;;2089116;28;20028;-75
2022/03/25 00:47:14;;;;;;;59.85;36.38;;;4.30;99.90;;;;;;2089146;28;20025;-74
2022/03/25 00:48:15;;;;;;;61.33;35.95;;;4.20;99.90;;;;;;2097317;28;20033;-74
2022/03/25 00:49:16;;;;;;;58.72;34.65;;;4.30;99.90;;;;;;2097140;28;20040;-74
2022/03/25 00:50:19;;;;;;;65.35;36.47;;;4.20;99.90;;;;;;2088992;28;20052;-74
2022/03/25 00:51:19;;;;;;;62.13;35.40;;;4.20;99.90;;;;;;2097488;28;20178;-74
2022/03/25 00:52:22;;;;;;;61.60;36.22;;;4.20;99.90;;;;;;2089135;28;20563;-74
2022/03/25 00:53:23;;;;;;;59.10;35.83;;;4.20;99.90;;;;;;2089732;28;20048;-76
2022/03/25 00:54:24;;;;;;;62.28;36.40;;;4.20;99.90;;;;;;2081189;28;20040;-76
2022/03/25 00:55:25;;;;;;;63.47;36.72;;;4.20;99.90;;;;;;2080746;28;20538;-74
2022/03/25 00:56:26;;;;;;;65.25;37.10;;;4.20;99.90;;;;;;2097610;28;20023;-73
2022/03/25 00:57:27;;;;;;;62.60;36.30;;;4.20;99.90;;;;;;2080857;28;20063;-73
2022/03/25 00:58:30;;;;;;;64.28;36.97;;;4.10;99.90;;;;;;2089417;28;20025;-73
2022/03/25 00:59:30;;;;;;;66.10;37.97;;;4.10;99.90;;;;;;2098134;28;20111;-73
2022/03/25 01:00:31;;;;;;;63.83;36.70;;;4.10;99.90;;;;;;2097992;28;20039;-72
2022/03/25 01:01:32;;;;;;;63.80;36.80;;;4.10;99.90;;;;;;2089706;28;20021;-73
2022/03/25 01:02:34;;;;;;;64.30;37.00;;;4.10;99.90;;;;;;2090830;28;20088;-75
2022/03/25 01:03:35;;;;;;;59.78;35.50;;;4.00;99.90;;;;;;2099717;28;20082;-74
2022/03/25 01:04:35;;;;;;;58.85;34.78;;;4.00;99.90;;;;;;2099407;28;20422;-73
2022/03/25 01:05:36;;;;;;;60.00;35.28;;;4.00;99.90;;;;;;2098818;28;20060;-73
2022/03/25 01:06:37;;;;;;;58.72;34.88;;;4.00;99.90;;;;;;2097342;28;20033;-73
2022/03/25 01:07:38;;;;;;;57.30;34.83;;;4.00;99.90;;;;;;2098667;28;20017;-72
2022/03/25 01:08:38;;;;;;;58.20;34.35;;;4.00;99.90;;;;;;2089637;28;20029;-73
2022/03/25 01:09:39;;;;;;;55.20;33.35;;;4.00;99.90;;;;;;2098034;28;20048;-72
2022/03/25 01:10:40;;;;;;;55.03;34.03;;;4.00;99.90;;;;;;2098074;28;20081;-74
2022/03/25 01:11:41;;;;;;;55.85;34.00;;;4.00;99.90;;;;;;2089711;28;20127;-72
2022/03/25 01:12:41;;;;;;;57.60;35.67;;;4.00;99.90;;;;;;2097215;28;20119;-73
2022/03/25 01:13:42;;;;;;;55.08;34.42;;;4.00;99.90;;;;;;2088994;28;20021;-73
2022/03/25 01:14:43;;;;;;;56.90;35.17;;;4.00;99.90;;;;;;2096934;28;20198;-72
2022/03/25 01:15:43;;;;;;;61.83;37.00;;;3.90;99.90;;;;;;2097890;28;20040;-72
2022/03/25 01:16:44;;;;;;;62.58;36.47;;;4.00;99.90;;;;;;2088845;28;20028;-73
2022/03/25 01:17:44;;;;;;;56.90;34.42;;;4.00;99.90;;;;;;2088953;28;20470;-74
2022/03/25 01:18:46;;;;;;;60.33;36.08;;;3.90;99.90;;;;;;2097197;28;20565;-73
2022/03/25 01:19:49;;;;;;;57.35;35.03;;;3.90;99.90;;;;;;2097215;28;20024;-73
2022/03/25 01:20:49;;;;;;;60.03;36.20;;;3.90;99.90;;;;;;2096788;28;20581;-72
2022/03/25 01:21:50;;;;;;;57.17;35.70;;;3.90;99.90;;;;;;2097465;28;20025;-74
2022/03/25 01:22:51;;;;;;;55.03;34.38;;;3.90;99.90;;;;;;2096718;28;20029;-72
2022/03/25 01:23:52;;;;;;;61.78;35.60;;;3.90;99.90;;;;;;2096717;28;20048;-74
2022/03/25 01:24:52;;;;;;;58.13;35.60;;;3.90;99.90;;;;;;2096513;28;20027;-73
2022/03/25 01:25:53;;;;;;;55.67;34.70;;;3.80;99.90;;;;;;2088417;28;20742;-72
2022/03/25 01:26:55;;;;;;;57.45;35.00;;;3.90;99.90;;;;;;2088471;28;20028;-74
2022/03/25 01:27:56;;;;;;;58.58;35.50;;;3.80;99.90;;;;;;2088410;28;20083;-74
2022/03/25 01:28:56;;;;;;;60.45;35.70;;;3.80;99.90;;;;;;2088444;28;20365;-72
2022/03/25 01:29:57;;;;;;;58.13;35.95;;;3.80;99.90;;;;;;2088274;28;20037;-73
2022/03/25 01:30:58;;;;;;;58.35;35.83;;;3.80;99.90;;;;;;2096864;28;20044;-73
2022/03/25 01:31:59;;;;;;;62.65;36.72;;;3.80;99.90;;;;;;2096768;28;20823;-73
2022/03/25 01:33:00;;;;;;;56.65;35.50;;;3.80;99.90;;;;;;2098327;28;20040;-72
2022/03/25 01:34:01;;;;;;;57.88;35.30;;;3.80;99.90;;;;;;2097848;28;20113;-72
2022/03/25 01:35:02;;;;;;;58.58;36.10;;;3.70;99.90;;;;;;2088605;28;20434;-74
2022/03/25 01:36:03;;;;;;;58.55;35.38;;;3.70;99.90;;;;;;2080277;28;20025;-74
2022/03/25 01:37:04;;;;;;;55.70;34.58;;;3.70;99.90;;;;;;2088351;28;20816;-72
2022/03/25 01:38:04;;;;;;;53.58;33.80;;;3.70;99.90;;;;;;2088565;28;20068;-74
2022/03/25 01:39:06;;;;;;;53.67;33.22;;;3.70;99.90;;;;;;2088664;28;20625;-74
2022/03/25 01:40:09;;;;;;;53.78;33.63;;;3.70;99.90;;;;;;2096468;28;20044;-74
2022/03/25 01:41:10;;;;;;;57.95;34.17;;;3.70;99.90;;;;;;2096782;28;20066;-74
2022/03/25 01:42:11;;;;;;;55.45;32.97;;;3.70;99.90;;;;;;2096716;28;20070;-74
2022/03/25 01:43:12;;;;;;;56.88;34.40;;;3.70;99.90;;;;;;2088337;28;20681;-75
2022/03/25 01:44:12;;;;;;;58.17;35.10;;;3.70;99.90;;;;;;2096759;28;20029;-73
2022/03/25 01:45:13;;;;;;;57.83;34.10;;;3.60;99.90;;;;;;2097107;28;20059;-74
2022/03/25 01:46:15;;;;;;;57.83;35.80;;;3.60;99.90;;;;;;2096491;28;20588;-74
2022/03/25 01:47:16;;;;;;;61.47;37.15;;;3.60;99.90;;;;;;2096559;28;20155;-74
2022/03/25 01:48:17;;;;;;;57.92;35.70;;;3.60;99.90;;;;;;2096696;28;20115;-73
2022/03/25 01:49:18;;;;;;;58.95;36.17;;;3.60;99.90;;;;;;2088439;28;20029;-74
2022/03/25 01:50:21;;;;;;;62.40;36.97;;;3.60;99.90;;;;;;2096663;28;20035;-75
2022/03/25 01:51:32;;;;;;;58.08;35.40;;;3.60;99.90;;;;;;2096533;28;20487;-73
2022/03/25 01:52:35;;;;;;;60.05;35.63;;;3.50;99.90;;;;;;2089929;28;20028;-74
2022/03/25 01:53:35;;;;;;;58.58;35.17;;;3.50;99.90;;;;;;2096698;28;20067;-74
2022/03/25 01:54:36;;;;;;;58.20;36.75;;;3.50;99.90;;;;;;2096772;28;20035;-74
2022/03/25 01:55:48;;;;;;;63.58;37.00;;;3.50;99.90;;;;;;2097300;28;20113;-74
2022/03/25 01:56:53;;;;;;;62.20;36.10;;;3.50;99.90;;;;;;2088418;28;20369;-74
2022/03/25 01:57:57;;;;;;;60.55;36.33;;;3.50;99.90;;;;;;2081155;28;20204;-74
2022/03/25 01:58:58;;;;;;;56.00;35.25;;;3.50;99.90;;;;;;2096970;28;20443;-73
2022/03/25 01:59:58;;;;;;;57.75;35.45;;;3.50;99.90;;;;;;2104810;28;20038;-72
2022/03/25 02:01:03;;;;;;;60.67;37.00;;;3.50;99.90;;;;;;2096972;28;20028;-74
2022/03/25 02:02:04;;;;;;;60.38;36.67;;;3.50;99.90;;;;;;2096610;28;20029;-75
2022/03/25 02:03:05;;;;;;;54.72;34.28;;;3.50;99.90;;;;;;2096647;28;20035;-72
2022/03/25 02:04:06;;;;;;;58.88;35.72;;;3.50;99.90;;;;;;2096528;28;20028;-75
2022/03/25 02:05:10;;;;;;;61.70;37.72;;;3.40;99.90;;;;;;2088540;28;20036;-73
2022/03/25 02:06:11;;;;;;;58.40;36.08;;;3.40;99.90;;;;;;2088806;28;20033;-73
2022/03/25 02:07:12;;;;;;;59.95;36.78;;;3.40;99.90;;;;;;2096672;28;20052;-73
2022/03/25 02:08:13;;;;;;;61.42;35.67;;;3.40;99.90;;;;;;2096567;28;20030;-73
2022/03/25 02:09:14;;;;;;;61.47;36.22;;;3.40;99.90;;;;;;2096482;28;20020;-74
2022/03/25 02:10:15;;;;;;;62.20;36.40;;;3.40;99.90;;;;;;2096381;28;20104;-74
2022/03/25 02:11:18;;;;;;;62.33;35.88;;;3.30;99.90;;;;;;2096574;28;20031;-74
2022/03/25 02:12:19;;;;;;;63.35;36.30;;;3.30;99.90;;;;;;2096298;28;20055;-74
2022/03/25 02:13:19;;;;;;;63.78;36.97;;;3.30;99.90;;;;;;2095909;28;20035;-73
2022/03/25 02:14:27;;;;;;;60.20;35.42;;;3.30;99.90;;;;;;2096035;28;20040;-74
2022/03/25 02:15:35;;;;;;;59.92;35.67;;;3.30;99.90;;;;;;2088611;28;20036;-72
2022/03/25 02:16:46;;;;;;;64.45;36.72;;;3.30;99.90;;;;;;2090596;28;20123;-74
2022/03/25 02:17:46;;;;;;;64.65;37.40;;;3.30;99.90;;;;;;2088789;28;20033;-73
2022/03/25 02:18:47;;;;;;;65.03;36.90;;;3.30;99.90;;;;;;2080149;28;20048;-73
2022/03/25 02:19:48;;;;;;;61.58;36.50;;;3.30;99.90;;;;;;2088541;28;20021;-73
2022/03/25 02:20:50;;;;;;;58.60;35.03;;;3.20;99.90;;;;;;2096426;28;20293;-73
2022/03/25 02:21:54;;;;;;;62.22;35.08;;;3.20;99.90;;;;;;2096693;28;20024;-73
2022/03/25 02:23:08;;;;;;;67.32;37.15;;;3.20;99.90;;;;;;2088633;28;20036;-74
2022/03/25 02:24:10;;;;;;;66.90;36.60;;;3.30;99.90;;;;;;2082019;28;20538;-73
2022/03/25 02:25:14;;;;;;;64.88;37.30;;;3.20;99.90;;;;;;2096687;28;20024;-73
2022/03/25 02:26:15;;;;;;;65.53;36.63;;;3.20;99.90;;;;;;2080659;28;20018;-73
2022/03/25 02:27:17;;;;;;;67.63;37.97;;;3.20;99.90;;;;;;2080442;28;20030;-73
2022/03/25 02:28:18;;;;;;;70.35;37.80;;;3.20;99.90;;;;;;2096943;28;20048;-74
2022/03/25 02:29:21;;;;;;;71.68;36.28;;;3.10;99.90;;;;;;2096948;28;20028;-74
2022/03/25 02:30:22;;;;;;;68.63;36.75;;;3.10;99.90;;;;;;2096723;28;20035;-73
2022/03/25 02:31:24;;;;;;;74.97;38.88;;;3.10;99.90;;;;;;2097003;28;20348;-73
2022/03/25 02:32:24;;;;;;;70.85;37.80;;;3.10;99.90;;;;;;2088591;28;20033;-74
2022/03/25 02:33:27;;;;;;;75.63;37.95;;;3.10;99.90;;;;;;2096122;28;20020;-73
2022/03/25 02:34:28;;;;;;;71.70;37.53;;;3.10;99.90;;;;;;2096020;28;20709;-73
2022/03/25 02:35:57;;;;;;;71.05;37.13;;;3.10;99.90;;;;;;2087078;28;20029;-73
2022/03/25 02:36:58;;;;;;;68.30;36.40;;;3.10;99.90;;;;;;2087653;28;20040;-73
2022/03/25 02:37:59;;;;;;;66.78;36.15;;;3.10;99.90;;;;;;2088263;28;20023;-73
2022/03/25 02:38:59;;;;;;;61.53;35.05;;;3.00;99.90;;;;;;2088207;28;20675;-71
2022/03/25 02:40:00;;;;;;;63.00;35.90;;;3.00;99.90;;;;;;2087376;28;20114;-72
2022/03/25 02:41:01;;;;;;;64.50;36.22;;;3.00;99.90;;;;;;2088299;28;20029;-71
2022/03/25 02:42:04;;;;;;;62.25;36.03;;;3.00;99.90;;;;;;2088805;28;20025;-72
2022/03/25 02:43:05;;;;;;;62.35;35.88;;;3.00;99.90;;;;;;2088351;28;20500;-72
2022/03/25 02:44:06;;;;;;;60.38;35.75;;;3.00;99.90;;;;;;2088396;28;20098;-73
2022/03/25 02:45:09;;;;;;;66.35;37.05;;;3.00;99.90;;;;;;2096270;28;20033;-72
2022/03/25 02:46:10;;;;;;;64.72;36.88;;;3.00;99.90;;;;;;2088397;28;20021;-72
2022/03/25 02:47:11;;;;;;;66.43;37.30;;;3.00;99.90;;;;;;2096623;28;20415;-72
2022/03/25 02:48:11;;;;;;;62.55;36.03;;;3.00;99.90;;;;;;2088350;28;20082;-73
2022/03/25 02:49:12;;;;;;;63.55;36.28;;;3.00;99.90;;;;;;2088328;28;20478;-73
2022/03/25 02:50:13;;;;;;;66.43;36.60;;;3.00;99.90;;;;;;2096312;28;20029;-73
2022/03/25 02:51:13;;;;;;;62.25;36.55;;;3.00;99.90;;;;;;2096611;28;20039;-72
2022/03/25 02:52:14;;;;;;;65.63;37.65;;;2.90;99.90;;;;;;2096651;28;20131;-72
2022/03/25 02:53:15;;;;;;;65.97;37.55;;;2.90;99.90;;;;;;2097317;28;20021;-71
2022/03/25 02:54:15;;;;;;;68.45;37.78;;;2.90;99.90;;;;;;2096631;28;20074;-73
2022/03/25 02:55:16;;;;;;;65.35;37.70;;;2.90;99.90;;;;;;2088036;28;20101;-73
2022/03/25 02:56:18;;;;;;;69.05;38.08;;;2.90;99.90;;;;;;2088324;28;20116;-71
2022/03/25 02:57:19;;;;;;;65.68;37.58;;;2.90;99.90;;;;;;2096805;28;20451;-73
2022/03/25 02:58:20;;;;;;;66.63;36.78;;;2.80;99.90;;;;;;2097412;28;20024;-72
2022/03/25 02:59:20;;;;;;;64.88;37.70;;;2.90;99.90;;;;;;2097388;28;20040;-73
2022/03/25 03:00:22;;;;;;;62.10;36.05;;;2.80;99.90;;;;;;2096501;28;20104;-72
2022/03/25 03:01:22;;;;;;;67.00;37.72;;;2.80;99.90;;;;;;2088539;28;20025;-73
2022/03/25 03:02:23;;;;;;;63.40;36.25;;;2.80;99.90;;;;;;2096729;28;20032;-71
2022/03/25 03:03:24;;;;;;;66.50;36.67;;;2.80;99.90;;;;;;2097236;28;20039;-71
2022/03/25 03:04:25;;;;;;;62.28;36.22;;;2.80;99.90;;;;;;2097208;28;20158;-72
2022/03/25 03:05:27;;;;;;;63.92;36.47;;;2.80;99.90;;;;;;2096942;28;20028;-73
2022/03/25 03:06:28;;;;;;;60.25;35.95;;;2.80;99.90;;;;;;2097041;28;20154;-73
2022/03/25 03:07:29;;;;;;;60.15;35.90;;;2.80;99.90;;;;;;2096642;28;20024;-72
2022/03/25 03:08:30;;;;;;;58.70;35.47;;;2.80;99.90;;;;;;2096748;28;20071;-71
2022/03/25 03:09:31;;;;;;;59.67;35.75;;;2.80;99.90;;;;;;2097172;28;20632;-73
2022/03/25 03:10:32;;;;;;;58.33;34.72;;;2.70;99.90;;;;;;2097166;28;20078;-72
2022/03/25 03:11:32;;;;;;;59.38;35.55;;;2.70;99.90;;;;;;2097310;28;20480;-72
2022/03/25 03:12:34;;;;;;;60.67;36.45;;;2.70;99.90;;;;;;2088657;28;20025;-75
2022/03/25 03:13:34;;;;;;;56.88;34.20;;;2.80;99.90;;;;;;2088779;28;20026;-75
2022/03/25 03:14:36;;;;;;;59.72;34.65;;;2.70;99.90;;;;;;2104900;28;20394;-71
2022/03/25 03:15:37;;;;;;;60.22;35.05;;;2.70;99.90;;;;;;2096376;28;20024;-73
2022/03/25 03:16:38;;;;;;;56.35;33.75;;;2.70;99.90;;;;;;2096776;28;20033;-73
2022/03/25 03:17:39;;;;;;;54.40;33.80;;;2.70;99.90;;;;;;2097403;28;20522;-73
2022/03/25 03:18:39;;;;;;;59.95;35.35;;;2.70;99.90;;;;;;2097437;28;20506;-73
2022/03/25 03:19:40;;;;;;;59.08;35.38;;;2.70;99.90;;;;;;2097199;28;20033;-73
2022/03/25 03:20:42;;;;;;;60.20;35.72;;;2.70;99.90;;;;;;2096924;28;20036;-74
2022/03/25 03:21:42;;;;;;;59.35;34.75;;;2.60;99.90;;;;;;2096832;28;20416;-73
2022/03/25 03:22:43;;;;;;;59.67;35.20;;;2.60;99.90;;;;;;2097038;28;20120;-74
2022/03/25 03:23:45;;;;;;;61.15;36.15;;;2.60;99.90;;;;;;2088416;28;20025;-72
2022/03/25 03:24:45;;;;;;;58.15;34.80;;;2.60;99.90;;;;;;2088166;28;20471;-72
2022/03/25 03:25:46;;;;;;;55.63;33.30;;;2.60;99.90;;;;;;2081694;28;20029;-72
2022/03/25 03:26:47;;;;;;;57.00;33.83;;;2.60;99.90;;;;;;2090191;28;20025;-73
2022/03/25 03:27:48;;;;;;;56.95;33.83;;;2.60;99.90;;;;;;2098316;28;20025;-73
2022/03/25 03:28:49;;;;;;;59.45;35.90;;;2.60;99.90;;;;;;2098366;28;20061;-74
2022/03/25 03:29:49;;;;;;;61.92;36.22;;;2.60;99.90;;;;;;2099141;28;20085;-74
2022/03/25 03:30:50;;;;;;;59.45;34.75;;;2.50;99.90;;;;;;2099592;28;20484;-74
2022/03/25 03:31:51;;;;;;;59.00;35.83;;;2.50;99.90;;;;;;2106598;28;20044;-73
2022/03/25 03:32:55;;;;;;;59.92;35.75;;;2.50;99.90;;;;;;2107074;28;20040;-74
2022/03/25 03:33:56;;;;;;;59.67;35.13;;;2.50;99.90;;;;;;2107741;28;20446;-76
2022/03/25 03:34:56;;;;;;;58.47;36.03;;;2.50;99.90;;;;;;2100970;28;20052;-72
2022/03/25 03:35:57;;;;;;;59.08;34.95;;;2.50;99.90;;;;;;2098894;28;20512;-72
2022/03/25 03:36:58;;;;;;;67.10;35.78;;;2.50;99.90;;;;;;2098758;28;20023;-74
2022/03/25 03:37:58;;;;;;;59.50;34.55;;;2.50;99.90;;;;;;2099145;28;20024;-73
2022/03/25 03:38:59;;;;;;;58.20;35.30;;;2.50;99.90;;;;;;2099179;28;20073;-73
2022/03/25 03:40:00;;;;;;;58.88;35.33;;;2.50;99.90;;;;;;2098805;28;20101;-74
2022/03/25 03:41:00;;;;;;;56.83;34.05;;;2.50;99.90;;;;;;2098767;28;20037;-73
2022/03/25 03:42:03;;;;;;;61.75;35.63;;;2.50;99.90;;;;;;2098395;28;20036;-73
2022/03/25 03:43:04;;;;;;;58.00;34.72;;;2.50;99.90;;;;;;2098349;28;20024;-72
2022/03/25 03:44:06;;;;;;;59.45;35.92;;;2.40;99.90;;;;;;2098141;28;20043;-72
2022/03/25 03:45:08;;;;;;;60.47;35.70;;;2.40;99.90;;;;;;2097959;28;20046;-72
2022/03/25 03:46:09;;;;;;;57.03;34.38;;;2.40;99.90;;;;;;2098841;28;20048;-74
2022/03/25 03:47:10;;;;;;;57.50;34.70;;;2.40;99.90;;;;;;2098702;28;20082;-74
2022/03/25 03:48:11;;;;;;;57.67;35.38;;;2.40;99.90;;;;;;2089968;28;20473;-73
2022/03/25 03:49:12;;;;;;;60.65;35.67;;;2.40;99.90;;;;;;2089758;28;20025;-74
2022/03/25 03:50:14;;;;;;;59.08;35.38;;;2.40;99.90;;;;;;2098512;28;20020;-74
2022/03/25 03:51:15;;;;;;;58.30;34.92;;;2.40;99.90;;;;;;2098187;28;20039;-73
2022/03/25 03:52:16;;;;;;;59.30;35.00;;;2.40;99.90;;;;;;2097582;28;20032;-73
2022/03/25 03:53:16;;;;;;;58.33;34.60;;;2.40;99.90;;;;;;2097929;28;20032;-73
2022/03/25 03:54:17;;;;;;;58.38;35.00;;;2.40;99.90;;;;;;2098052;28;20089;-72
2022/03/25 03:55:36;;;;;;;59.75;34.80;;;2.30;99.90;;;;;;2098761;28;20036;-73
2022/03/25 03:56:37;;;;;;;59.72;36.13;;;2.30;99.90;;;;;;2098117;28;20029;-73
2022/03/25 03:57:39;;;;;;;58.53;35.42;;;2.30;99.90;;;;;;2098005;28;20493;-73
2022/03/25 03:58:40;;;;;;;55.88;34.67;;;2.30;99.90;;;;;;2098611;28;20495;-73
2022/03/25 03:59:40;;;;;;;59.95;35.90;;;2.30;99.90;;;;;;2098069;28;20039;-73
2022/03/25 04:00:41;;;;;;;58.50;34.60;;;2.30;99.90;;;;;;2098117;28;20040;-73
2022/03/25 04:01:42;;;;;;;56.10;34.38;;;2.30;99.90;;;;;;2089830;28;20025;-73
2022/03/25 04:02:44;;;;;;;57.58;34.05;;;2.30;99.90;;;;;;2098088;28;20035;-73
2022/03/25 04:03:45;;;;;;;58.80;34.20;;;2.30;99.90;;;;;;2098671;28;20031;-73
2022/03/25 04:04:46;;;;;;;57.63;34.53;;;2.30;99.90;;;;;;2098399;28;20517;-73
2022/03/25 04:05:46;;;;;;;58.15;34.85;;;2.30;99.90;;;;;;2098677;28;20025;-74
2022/03/25 04:06:47;;;;;;;55.42;33.92;;;2.30;99.90;;;;;;2098832;28;20020;-74
2022/03/25 04:07:48;;;;;;;56.60;34.50;;;2.30;99.90;;;;;;2098888;28;20115;-71
2022/03/25 04:08:49;;;;;;;57.05;34.20;;;2.30;99.90;;;;;;2099159;28;20380;-72
2022/03/25 04:09:50;;;;;;;57.58;33.72;;;2.30;99.90;;;;;;2099015;28;20063;-73
2022/03/25 04:10:50;;;;;;;57.83;34.42;;;2.30;99.90;;;;;;2098185;28;20043;-73
2022/03/25 04:11:51;;;;;;;63.05;36.35;;;2.20;99.90;;;;;;2090147;28;20021;-71
2022/03/25 04:12:51;;;;;;;57.78;34.60;;;2.30;99.90;;;;;;2098229;28;20032;-72
2022/03/25 04:13:53;;;;;;;58.20;35.47;;;2.30;99.90;;;;;;2099289;28;20108;-71
2022/03/25 04:14:54;;;;;;;60.75;34.83;;;2.20;99.90;;;;;;2098643;28;20111;-71
2022/03/25 04:15:55;;;;;;;59.08;35.45;;;2.20;99.90;;;;;;2098669;28;20020;-73
2022/03/25 04:16:55;;;;;;;57.17;34.75;;;2.20;99.90;;;;;;2098521;28;20032;-71
2022/03/25 04:17:56;;;;;;;58.45;33.92;;;2.20;99.90;;;;;;2098293;28;20103;-72
2022/03/25 04:18:57;;;;;;;57.80;34.45;;;2.20;99.90;;;;;;2098435;28;20426;-73
2022/03/25 04:19:58;;;;;;;59.00;34.25;;;2.20;99.90;;;;;;2098148;28;20514;-71
2022/03/25 04:20:58;;;;;;;56.70;33.85;;;2.20;99.90;;;;;;2097667;28;20115;-72
2022/03/25 04:21:59;;;;;;;55.88;34.78;;;2.20;99.90;;;;;;2097722;28;20033;-73
2022/03/25 04:22:59;;;;;;;59.45;34.10;;;2.10;99.90;;;;;;2098415;28;20024;-73
2022/03/25 04:24:00;;;;;;;63.28;35.85;;;2.10;99.90;;;;;;2098418;28;20048;-72
2022/03/25 04:25:00;;;;;;;62.90;36.00;;;2.10;99.90;;;;;;2098115;28;20059;-71
2022/03/25 04:26:02;;;;;;;63.08;35.75;;;2.10;99.90;;;;;;2097626;28;20074;-73
2022/03/25 04:27:02;;;;;;;58.90;34.67;;;2.10;99.90;;;;;;2097664;28;20054;-72
2022/03/25 04:28:03;;;;;;;61.47;34.95;;;2.10;99.90;;;;;;2098241;28;20099;-73
2022/03/25 04:29:04;;;;;;;63.15;36.70;;;2.10;99.90;;;;;;2097623;28;20095;-74
2022/03/25 04:30:05;;;;;;;59.38;35.40;;;2.10;99.90;;;;;;2089043;28;20060;-73
2022/03/25 04:31:06;;;;;;;61.63;35.80;;;2.10;99.90;;;;;;2097680;28;20036;-73
2022/03/25 04:32:07;;;;;;;61.20;34.85;;;2.10;99.90;;;;;;2098460;28;20016;-73
2022/03/25 04:33:08;;;;;;;63.00;36.05;;;2.10;99.90;;;;;;2098283;28;20075;-74
2022/03/25 04:34:08;;;;;;;62.65;36.03;;;2.00;99.90;;;;;;2097644;28;20036;-73
2022/03/25 04:35:09;;;;;;;59.08;35.58;;;2.00;99.90;;;;;;2089188;28;20044;-72
2022/03/25 04:36:10;;;;;;;60.22;35.95;;;2.00;99.90;;;;;;2097354;28;20040;-74
2022/03/25 04:37:11;;;;;;;57.67;35.00;;;2.00;99.90;;;;;;2096820;28;20099;-72
2022/03/25 04:38:11;;;;;;;58.63;34.58;;;2.00;99.90;;;;;;2098006;28;20028;-74
2022/03/25 04:39:12;;;;;;;62.25;36.38;;;2.00;99.90;;;;;;2097699;28;20035;-72
2022/03/25 04:40:17;;;;;;;63.70;36.20;;;2.00;99.90;;;;;;2097338;28;20028;-73
2022/03/25 04:41:18;;;;;;;59.75;35.15;;;2.00;99.90;;;;;;2098360;28;20072;-72
2022/03/25 04:42:18;;;;;;;59.90;35.33;;;2.00;99.90;;;;;;2098080;28;20032;-74
2022/03/25 04:43:19;;;;;;;59.60;35.08;;;2.00;99.90;;;;;;2098068;28;20037;-73
2022/03/25 04:44:19;;;;;;;62.53;36.60;;;2.00;99.90;;;;;;2098261;28;20013;-73
2022/03/25 04:45:21;;;;;;;64.30;35.90;;;2.00;99.90;;;;;;2098014;28;20052;-73
2022/03/25 04:46:22;;;;;;;60.90;36.55;;;2.00;99.90;;;;;;2098292;28;20472;-73
2022/03/25 04:47:22;;;;;;;60.20;35.65;;;2.00;99.90;;;;;;2098012;28;20024;-71
2022/03/25 04:48:23;;;;;;;60.63;34.70;;;2.00;99.90;;;;;;2098169;28;20039;-72
2022/03/25 04:49:23;;;;;;;65.28;35.92;;;2.00;99.90;;;;;;2097507;28;20025;-73
2022/03/25 04:50:24;;;;;;;66.10;36.25;;;2.00;99.90;;;;;;2088890;28;20025;-72
2022/03/25 04:51:25;;;;;;;58.08;34.97;;;1.90;99.90;;;;;;2089163;28;20107;-72
2022/03/25 04:52:25;;;;;;;61.65;35.75;;;1.90;99.90;;;;;;2097448;28;20030;-76
2022/03/25 04:53:26;;;;;;;59.97;34.97;;;1.90;99.90;;;;;;2088994;28;20440;-71
2022/03/25 04:54:27;;;;;;;58.95;35.00;;;1.90;99.90;;;;;;2089100;28;20132;-72
2022/03/25 04:55:28;;;;;;;61.25;35.17;;;1.90;99.90;;;;;;2096970;28;20020;-73
2022/03/25 04:56:28;;;;;;;57.15;35.33;;;1.90;99.90;;;;;;2089091;28;20079;-72
2022/03/25 04:57:29;;;;;;;58.13;34.65;;;1.90;99.90;;;;;;2097372;28;20023;-72
2022/03/25 04:58:30;;;;;;;59.25;35.05;;;1.90;99.90;;;;;;2098087;28;20013;-75
2022/03/25 04:59:31;;;;;;;57.08;33.92;;;1.90;99.90;;;;;;2098020;28;20399;-72
2022/03/25 05:00:31;;;;;;;63.60;35.58;;;1.90;99.90;;;;;;2097877;28;20013;-72
2022/03/25 05:01:32;;;;;;;62.00;34.47;;;1.90;99.90;;;;;;2098179;28;20071;-73
2022/03/25 05:02:33;;;;;;;62.17;35.83;;;1.90;99.90;;;;;;2097862;28;20044;-73
2022/03/25 05:03:34;;;;;;;59.42;35.40;;;1.90;99.90;;;;;;2097989;28;20502;-74
2022/03/25 05:04:34;;;;;;;68.45;37.63;;;1.90;99.90;;;;;;2097732;28;20105;-77
2022/03/25 05:05:35;;;;;;;61.78;37.15;;;1.90;99.90;;;;;;2097136;28;20059;-73
2022/03/25 05:06:35;;;;;;;63.20;36.75;;;1.90;99.90;;;;;;2097271;28;20059;-72
2022/03/25 05:07:40;;;;;;;65.80;36.35;;;1.90;99.90;;;;;;2097770;28;20036;-74
2022/03/25 05:08:41;;;;;;;65.55;36.85;;;1.90;99.90;;;;;;2097753;28;20016;-73
2022/03/25 05:09:43;;;;;;;64.72;36.65;;;1.90;99.90;;;;;;2097129;28;20052;-74
2022/03/25 05:10:44;;;;;;;64.82;36.33;;;1.90;99.90;;;;;;2097185;28;20500;-73
2022/03/25 05:11:45;;;;;;;61.72;35.63;;;1.90;99.90;;;;;;2097908;28;20056;-74
2022/03/25 05:12:45;;;;;;;62.03;36.67;;;1.90;99.90;;;;;;2097202;28;20033;-72
2022/03/25 05:13:46;;;;;;;63.47;35.60;;;1.90;99.90;;;;;;2097402;28;20526;-73
2022/03/25 05:14:47;;;;;;;58.75;34.97;;;1.90;99.90;;;;;;2097769;28;20017;-73